createdAt,value
2022-07-29T00:00:56.546Z,100683.88
2022-07-29T00:03:23.183Z,100688.97
2022-07-29T00:05:49.748Z,100686.91
2022-07-29T00:08:16.550Z,100686.06
2022-07-29T00:10:43.460Z,100682.59
2022-07-29T00:13:10.028Z,100699.09
2022-07-29T00:15:36.472Z,100701.59
2022-07-29T00:18:02.966Z,100700.78
2022-07-29T00:20:29.474Z,100704.34
2022-07-29T00:22:55.964Z,100699.91
2022-07-29T00:25:22.703Z,100703.72
2022-07-29T00:27:49.147Z,100700.97
2022-07-29T00:30:15.780Z,100687.13
2022-07-29T00:32:42.477Z,100689.47
2022-07-29T00:35:27.784Z,100689.47
2022-07-29T00:37:54.303Z,100683.94
2022-07-29T00:40:23.550Z,100686.63
2022-07-29T00:42:51.655Z,100684.72
2022-07-29T00:45:18.874Z,100682.59
2022-07-29T00:47:46.294Z,100688.47
2022-07-29T00:50:14.179Z,100690.19
2022-07-29T00:52:42.474Z,100697.06
2022-07-29T00:55:12.049Z,100703.66
2022-07-29T00:57:39.657Z,100704.09
2022-07-29T01:00:08.628Z,100695.25
2022-07-29T01:02:35.212Z,100700.34
2022-07-29T01:05:03.018Z,100703.28
2022-07-29T01:07:31.103Z,100702.44
2022-07-29T01:09:58.207Z,100699.53
2022-07-29T01:12:27.835Z,100691.56
2022-07-29T01:14:56.544Z,100687.13
2022-07-29T01:17:33.402Z,100688.59
2022-07-29T01:20:23.327Z,100699.63
2022-07-29T01:23:10.611Z,100702.13
2022-07-29T01:25:48.582Z,100688.22
2022-07-29T01:28:38.282Z,100685.31
2022-07-29T01:31:07.789Z,100682.03
2022-07-29T01:33:50.512Z,100687.81
2022-07-29T01:36:36.143Z,100669.03
2022-07-29T01:39:18.137Z,100664.88
2022-07-29T01:42:00.284Z,100658.72
2022-07-29T01:44:37.591Z,100650.06
2022-07-29T01:47:13.488Z,100653.59
2022-07-29T01:49:44.031Z,100653.03
2022-07-29T01:52:19.969Z,100665.34
2022-07-29T01:54:53.263Z,100659.75
2022-07-29T01:57:23.273Z,100666.66
2022-07-29T01:59:51.990Z,100670.94
2022-07-29T02:02:19.915Z,100675.59
2022-07-29T02:04:49.678Z,100671.13
2022-07-29T02:07:21.932Z,100680.06
2022-07-29T02:09:51.087Z,100685.09
2022-07-29T02:12:20.256Z,100681.09
2022-07-29T02:14:50.846Z,100684.66
2022-07-29T02:17:20.849Z,100680.06
2022-07-29T02:19:48.569Z,100676.47
2022-07-29T02:22:17.504Z,100680.06
2022-07-29T02:24:45.638Z,100685.44
2022-07-29T02:27:13.153Z,100687.75
2022-07-29T02:29:40.804Z,100690.09
2022-07-29T02:32:09.482Z,100690.38
2022-07-29T02:34:39.026Z,100686.81
2022-07-29T02:37:06.356Z,100682.09
2022-07-29T02:39:35.783Z,100673.44
2022-07-29T02:42:06.689Z,100688.66
2022-07-29T02:44:35.958Z,100688.34
2022-07-29T02:47:14.467Z,100692.69
2022-07-29T02:49:53.508Z,100689.28
2022-07-29T02:52:27.341Z,100691.81
2022-07-29T02:55:11.722Z,100697.75
2022-07-29T02:57:54.549Z,100701.66
2022-07-29T03:00:25.121Z,100704.66
2022-07-29T03:02:54.794Z,100702.16
2022-07-29T03:05:22.841Z,100692.56
2022-07-29T03:07:57.353Z,100698.19
2022-07-29T03:10:26.687Z,100696.50
2022-07-29T03:12:53.966Z,100685.28
2022-07-29T03:15:21.758Z,100696.72
2022-07-29T03:17:51.733Z,100694.16
2022-07-29T03:20:18.806Z,100701.56
2022-07-29T03:22:47.978Z,100703.97
2022-07-29T03:25:16.618Z,100702.03
2022-07-29T03:27:43.961Z,100698.28
2022-07-29T03:30:12.001Z,100701.41
2022-07-29T03:32:45.346Z,100705.47
2022-07-29T03:35:12.429Z,100707.09
2022-07-29T03:37:38.929Z,100707.78
2022-07-29T03:40:11.116Z,100700.38
2022-07-29T03:42:40.766Z,100708.81
2022-07-29T03:45:11.084Z,100710.66
2022-07-29T03:47:51.089Z,100699.75
2022-07-29T03:50:21.114Z,100695.44
2022-07-29T03:52:48.612Z,100694.38
2022-07-29T03:55:16.043Z,100696.47
2022-07-29T03:57:43.596Z,100699.06
2022-07-29T04:00:11.278Z,100707.72
2022-07-29T04:02:40.334Z,100700.88
2022-07-29T04:05:13.556Z,100695.34
2022-07-29T04:07:40.935Z,100698.91
2022-07-29T04:10:08.794Z,100693.03
2022-07-29T04:12:36.064Z,100703.38
2022-07-29T04:15:04.360Z,100705.75
2022-07-29T04:17:31.182Z,100710.03
2022-07-29T04:19:57.646Z,100719.53
2022-07-29T04:22:24.142Z,100719.72
2022-07-29T04:24:51.849Z,100722.50
2022-07-29T04:27:18.318Z,100725.94
2022-07-29T04:29:56.377Z,100732.06
2022-07-29T04:32:24.355Z,100738.75
2022-07-29T04:34:50.818Z,100753.16
2022-07-29T04:37:17.286Z,100756.31
2022-07-29T04:39:43.771Z,100754.41
2022-07-29T04:42:10.261Z,100758.59
2022-07-29T04:44:39.496Z,100754.00
2022-07-29T04:47:09.013Z,100760.75
2022-07-29T04:49:35.492Z,100755.09
2022-07-29T04:52:01.957Z,100756.06
2022-07-29T04:54:28.436Z,100758.66
2022-07-29T04:56:54.893Z,100765.44
2022-07-29T04:59:21.404Z,100757.69
2022-07-29T05:01:47.949Z,100758.66
2022-07-29T05:04:14.759Z,100760.44
2022-07-29T05:06:41.403Z,100758.94
2022-07-29T05:09:07.872Z,100752.94
2022-07-29T05:11:34.329Z,100748.03
2022-07-29T05:14:00.772Z,100752.50
2022-07-29T05:16:28.660Z,100760.50
2022-07-29T05:18:55.118Z,100773.59
2022-07-29T05:21:21.588Z,100758.38
2022-07-29T05:23:48.181Z,100765.00
2022-07-29T05:26:14.645Z,100769.81
2022-07-29T05:28:41.089Z,100766.38
2022-07-29T05:31:07.607Z,100764.03
2022-07-29T05:33:36.023Z,100758.91
2022-07-29T05:36:06.518Z,100755.31
2022-07-29T05:38:33.651Z,100752.41
2022-07-29T05:41:00.659Z,100747.06
2022-07-29T05:43:30.857Z,100747.84
2022-07-29T05:45:57.834Z,100746.22
2022-07-29T05:48:25.245Z,100736.44
2022-07-29T05:50:51.695Z,100742.81
2022-07-29T05:53:19.140Z,100752.44
2022-07-29T05:55:47.510Z,100756.69
2022-07-29T05:58:13.994Z,100766.06
2022-07-29T06:00:40.878Z,100771.06
2022-07-29T06:03:07.581Z,100766.16
2022-07-29T06:05:34.062Z,100768.31
2022-07-29T06:08:00.544Z,100761.97
2022-07-29T06:10:27.793Z,100762.03
2022-07-29T06:12:54.669Z,100766.59
2022-07-29T06:15:21.794Z,100767.44
2022-07-29T06:17:59.412Z,100781.03
2022-07-29T06:20:27.732Z,100776.06
2022-07-29T06:22:54.518Z,100785.31
2022-07-29T06:25:21.133Z,100796.41
2022-07-29T06:27:47.570Z,100792.38
2022-07-29T06:30:14.258Z,100792.06
2022-07-29T06:32:43.184Z,100799.88
2022-07-29T06:35:39.490Z,100800.81
2022-07-29T06:37:59.627Z,100794.38
2022-07-29T06:40:45.463Z,100787.44
2022-07-29T06:43:12.142Z,100784.06
2022-07-29T06:45:42.153Z,100779.31
2022-07-29T06:48:09.028Z,100789.59
2022-07-29T06:50:35.576Z,100794.19
2022-07-29T06:53:02.041Z,100790.50
2022-07-29T06:55:28.529Z,100787.66
2022-07-29T06:57:55.051Z,100782.47
2022-07-29T07:00:21.554Z,100784.44
2022-07-29T07:02:48.121Z,100784.94
2022-07-29T07:05:14.683Z,100794.41
2022-07-29T07:07:41.157Z,100791.44
2022-07-29T07:10:08.106Z,100797.06
2022-07-29T07:12:34.612Z,100802.31
2022-07-29T07:15:01.123Z,100796.53
2022-07-29T07:17:27.633Z,100794.50
2022-07-29T07:19:54.100Z,100787.44
2022-07-29T07:22:20.586Z,100785.34
2022-07-29T07:24:47.061Z,100784.97
2022-07-29T07:27:13.546Z,100789.31
2022-07-29T07:29:42.070Z,100784.19
2022-07-29T07:32:10.570Z,100781.56
2022-07-29T07:34:38.728Z,100784.34
2022-07-29T07:37:05.396Z,100780.03
2022-07-29T07:39:31.904Z,100783.16
2022-07-29T07:41:58.402Z,100782.41
2022-07-29T07:44:24.884Z,100785.06
2022-07-29T07:46:51.369Z,100774.59
2022-07-29T07:49:17.949Z,100778.72
2022-07-29T07:51:44.508Z,100771.41
2022-07-29T07:54:17.920Z,100775.72
2022-07-29T07:56:45.028Z,100775.84
2022-07-29T07:59:11.534Z,100774.78
2022-07-29T08:01:54.666Z,100772.19
2022-07-29T08:04:27.477Z,100772.94
2022-07-29T08:06:55.252Z,100768.69
2022-07-29T08:09:29.207Z,100768.41
2022-07-29T08:11:58.525Z,100770.25
2022-07-29T08:14:25.003Z,100770.19
2022-07-29T08:16:52.383Z,100770.09
2022-07-29T08:19:19.275Z,100758.53
2022-07-29T08:21:45.859Z,100768.28
2022-07-29T08:24:31.091Z,100771.19
2022-07-29T08:26:57.556Z,100766.59
2022-07-29T08:29:24.036Z,100766.88
2022-07-29T08:31:50.849Z,100769.75
2022-07-29T08:34:17.537Z,100763.25
2022-07-29T08:36:44.138Z,100762.50
2022-07-29T08:39:10.585Z,100765.44
2022-07-29T08:41:37.597Z,100764.84
2022-07-29T08:44:04.472Z,100771.06
2022-07-29T08:46:31.064Z,100769.09
2022-07-29T08:48:57.715Z,100777.47
2022-07-29T08:51:26.398Z,100766.50
2022-07-29T08:53:53.946Z,100775.72
2022-07-29T08:56:21.410Z,100768.19
2022-07-29T08:58:51.897Z,100770.25
2022-07-29T09:01:23.686Z,100770.47
2022-07-29T09:04:05.531Z,100761.78
2022-07-29T09:06:35.199Z,100760.00
2022-07-29T09:09:01.954Z,100756.59
2022-07-29T09:11:29.421Z,100745.56
2022-07-29T09:13:56.002Z,100743.00
2022-07-29T09:16:43.715Z,100745.03
2022-07-29T09:19:24.577Z,100743.41
2022-07-29T09:22:03.115Z,100742.66
2022-07-29T09:24:47.737Z,100738.56
2022-07-29T09:27:26.917Z,100745.75
2022-07-29T09:30:08.286Z,100745.25
2022-07-29T09:32:55.122Z,100738.19
2022-07-29T09:35:24.073Z,100741.09
2022-07-29T09:37:51.098Z,100740.22
2022-07-29T09:40:20.956Z,100734.88
2022-07-29T09:42:48.395Z,100732.09
2022-07-29T09:45:31.694Z,100739.31
2022-07-29T09:48:03.953Z,100729.56
2022-07-29T09:50:41.123Z,100729.19
2022-07-29T09:53:07.959Z,100726.50
2022-07-29T09:55:47.755Z,100721.94
2022-07-29T09:58:19.615Z,100714.94
2022-07-29T10:00:47.359Z,100704.31
2022-07-29T10:03:15.058Z,100701.13
2022-07-29T10:05:42.974Z,100698.00
2022-07-29T10:08:11.569Z,100687.72
2022-07-29T10:10:40.210Z,100683.66
2022-07-29T10:13:15.771Z,100691.66
2022-07-29T10:15:46.067Z,100695.97
2022-07-29T10:18:18.320Z,100699.69
2022-07-29T10:20:45.402Z,100698.09
2022-07-29T10:23:12.078Z,100694.25
2022-07-29T10:25:38.580Z,100688.72
2022-07-29T10:28:06.849Z,100693.88
2022-07-29T10:30:34.264Z,100698.13
2022-07-29T10:33:38.620Z,100698.19
2022-07-29T10:36:21.055Z,100696.47
2022-07-29T10:39:08.945Z,100700.69
2022-07-29T10:41:55.477Z,100697.94
2022-07-29T10:44:24.650Z,100692.38
2022-07-29T10:46:52.777Z,100688.69
2022-07-29T10:49:24.693Z,100675.78
2022-07-29T10:52:02.566Z,100682.13
2022-07-29T10:54:42.318Z,100662.06
2022-07-29T10:57:17.273Z,100664.78
2022-07-29T10:59:46.174Z,100661.06
2022-07-29T11:05:22.072Z,100651.22
2022-07-29T11:08:19.907Z,100657.38
2022-07-29T11:10:48.706Z,100649.34
2022-07-29T11:13:44.067Z,100652.59
2022-07-29T11:16:10.707Z,100639.56
2022-07-29T11:19:00.068Z,100651.34
2022-07-29T11:21:54.169Z,100647.13
2022-07-29T11:24:33.121Z,100644.50
2022-07-29T11:27:19.838Z,100646.44
2022-07-29T11:29:53.359Z,100632.47
2022-07-29T11:32:22.636Z,100627.31
2022-07-29T11:35:17.116Z,100624.38
2022-07-29T11:37:52.137Z,100619.97
2022-07-29T11:40:22.922Z,100615.31
2022-07-29T11:42:51.794Z,100620.81
2022-07-29T11:48:29.126Z,100627.38
2022-07-29T11:50:58.348Z,100620.13
2022-07-29T11:53:25.708Z,100617.47
2022-07-29T11:55:56.452Z,100628.97
2022-07-29T11:58:26.191Z,100619.06
2022-07-29T12:00:55.230Z,100615.59
2022-07-29T12:03:35.043Z,100611.41
2022-07-29T12:06:02.411Z,100615.97
2022-07-29T12:08:28.954Z,100604.53
2022-07-29T12:10:55.500Z,100605.47
2022-07-29T12:13:22.631Z,100607.22
2022-07-29T12:16:00.172Z,100596.53
2022-07-29T12:18:27.746Z,100591.13
2022-07-29T12:21:03.667Z,100602.63
2022-07-29T12:23:35.010Z,100587.38
2022-07-29T12:26:07.212Z,100587.38
2022-07-29T12:28:40.195Z,100584.91
2022-07-29T12:31:13.820Z,100573.47
2022-07-29T12:33:40.627Z,100571.63
2022-07-29T12:36:10.458Z,100565.41
2022-07-29T12:38:41.854Z,100564.66
2022-07-29T12:41:09.428Z,100569.22
2022-07-29T12:43:36.089Z,100556.06
2022-07-29T12:46:14.559Z,100558.63
2022-07-29T12:48:43.661Z,100551.66
2022-07-29T12:51:12.676Z,100557.00
2022-07-29T12:53:39.617Z,100552.56
2022-07-29T12:56:26.592Z,100546.38
2022-07-29T12:58:54.102Z,100547.03
2022-07-29T13:01:22.653Z,100536.34
2022-07-29T13:04:03.831Z,100519.59
2022-07-29T13:06:36.199Z,100507.34
2022-07-29T13:09:17.796Z,100505.50
2022-07-29T13:11:51.037Z,100504.59
2022-07-29T13:14:35.918Z,100505.56
2022-07-29T13:17:11.131Z,100507.41
2022-07-29T13:19:44.781Z,100520.66
2022-07-29T13:22:13.628Z,100519.78
2022-07-29T13:24:56.876Z,100506.38
2022-07-29T13:27:29.445Z,100513.50
2022-07-29T13:29:58.538Z,100512.72
2022-07-29T13:32:27.752Z,100495.91
2022-07-29T13:34:55.680Z,100503.03
2022-07-29T13:37:22.151Z,100484.44
2022-07-29T13:39:52.842Z,100483.47
2022-07-29T13:42:20.276Z,100483.50
2022-07-29T13:44:46.863Z,100493.22
2022-07-29T13:47:13.806Z,100501.19
2022-07-29T13:49:40.268Z,100503.81
2022-07-29T13:52:08.431Z,100512.66
2022-07-29T13:54:42.026Z,100514.31
2022-07-29T13:57:09.331Z,100505.38
2022-07-29T13:59:35.836Z,100498.28
2022-07-29T14:02:02.728Z,100486.81
2022-07-29T14:04:29.548Z,100488.59
2022-07-29T14:06:56.094Z,100492.13
2022-07-29T14:09:22.606Z,100501.81
2022-07-29T14:11:51.091Z,100494.63
2022-07-29T14:14:17.859Z,100494.53
2022-07-29T14:16:48.973Z,100500.72
2022-07-29T14:19:18.559Z,100491.88
2022-07-29T14:21:45.632Z,100483.00
2022-07-29T14:24:16.278Z,100494.53
2022-07-29T14:26:48.166Z,100498.91
2022-07-29T14:29:14.693Z,100501.47
2022-07-29T14:31:41.396Z,100506.75
2022-07-29T14:34:07.877Z,100493.41
2022-07-29T14:36:34.337Z,100484.56
2022-07-29T14:39:00.785Z,100506.63
2022-07-29T14:41:29.119Z,100516.31
2022-07-29T14:43:55.649Z,100512.69
2022-07-29T14:46:22.143Z,100519.75
2022-07-29T14:48:48.733Z,100530.25
2022-07-29T14:51:15.349Z,100539.91
2022-07-29T14:53:41.837Z,100561.13
2022-07-29T14:56:34.186Z,100592.69
2022-07-29T14:58:54.939Z,100596.25
2022-07-29T15:01:21.581Z,100584.38
2022-07-29T15:03:48.087Z,100573.28
2022-07-29T15:06:14.658Z,100607.25
2022-07-29T15:08:41.240Z,100603.47
2022-07-29T15:11:07.780Z,100580.19
2022-07-29T15:13:35.297Z,100561.00
2022-07-29T15:16:02.133Z,100559.53
2022-07-29T15:18:28.671Z,100572.72
2022-07-29T15:20:55.158Z,100567.38
2022-07-29T15:23:21.638Z,100542.41
2022-07-29T15:25:48.135Z,100541.03
2022-07-29T15:28:14.621Z,100541.13
2022-07-29T15:30:41.859Z,100544.84
2022-07-29T15:33:10.227Z,100543.63
2022-07-29T15:35:40.075Z,100550.75
2022-07-29T15:38:07.630Z,100558.19
2022-07-29T15:40:34.315Z,100561.75
2022-07-29T15:43:06.655Z,100569.50
2022-07-29T15:45:41.447Z,100560.00
2022-07-29T15:48:09.621Z,100563.16
2022-07-29T15:50:36.258Z,100567.03
2022-07-29T15:53:03.456Z,100576.94
2022-07-29T15:55:30.013Z,100565.41
2022-07-29T15:58:00.469Z,100558.72
2022-07-29T16:00:27.297Z,100562.97
2022-07-29T16:02:53.818Z,100573.41
2022-07-29T16:05:20.352Z,100594.25
2022-07-29T16:07:46.917Z,100586.25
2022-07-29T16:10:13.599Z,100581.91
2022-07-29T16:12:40.174Z,100563.00
2022-07-29T16:15:10.195Z,100554.00
2022-07-29T16:17:37.872Z,100561.91
2022-07-29T16:20:05.816Z,100558.44
2022-07-29T16:22:32.425Z,100553.84
2022-07-29T16:24:58.929Z,100525.09
2022-07-29T16:27:35.354Z,100507.66
2022-07-29T16:30:06.920Z,100511.97
2022-07-29T16:32:33.655Z,100522.03
2022-07-29T16:35:02.262Z,100536.13
2022-07-29T16:37:33.444Z,100535.81
2022-07-29T16:40:00.023Z,100535.78
2022-07-29T16:42:45.400Z,100530.84
2022-07-29T16:45:12.923Z,100532.91
2022-07-29T16:47:39.443Z,100540.75
2022-07-29T16:50:06.396Z,100547.16
2022-07-29T16:52:33.602Z,100554.19
2022-07-29T16:55:00.165Z,100566.63
2022-07-29T16:57:26.666Z,100568.22
2022-07-29T16:59:53.187Z,100563.59
2022-07-29T17:02:19.844Z,100571.53
2022-07-29T17:04:46.349Z,100580.19
2022-07-29T17:07:13.015Z,100588.19
2022-07-29T17:09:40.482Z,100598.94
2022-07-29T17:12:07.249Z,100602.25
2022-07-29T17:14:33.704Z,100595.34
2022-07-29T17:17:02.625Z,100600.44
2022-07-29T17:19:35.340Z,100602.81
2022-07-29T17:22:15.618Z,100601.03
2022-07-29T17:24:45.736Z,100603.47
2022-07-29T17:27:12.306Z,100601.16
2022-07-29T17:29:39.255Z,100610.47
2022-07-29T17:32:07.726Z,100614.53
2022-07-29T17:34:35.526Z,100617.84
2022-07-29T17:37:02.246Z,100628.91
2022-07-29T17:39:28.827Z,100619.50
2022-07-29T17:41:55.580Z,100616.53
2022-07-29T17:44:22.063Z,100620.34
2022-07-29T17:46:48.621Z,100616.28
2022-07-29T17:49:15.245Z,100614.63
2022-07-29T17:51:41.768Z,100614.41
2022-07-29T17:54:08.317Z,100611.00
2022-07-29T17:56:34.840Z,100610.69
2022-07-29T17:59:06.323Z,100620.22
2022-07-29T18:01:33.919Z,100623.31
2022-07-29T18:04:02.720Z,100629.13
2022-07-29T18:06:29.500Z,100632.00
2022-07-29T18:08:56.156Z,100632.31
2022-07-29T18:11:23.403Z,100634.91
2022-07-29T18:13:49.887Z,100634.38
2022-07-29T18:16:16.558Z,100628.25
2022-07-29T18:18:44.358Z,100628.16
2022-07-29T18:21:11.117Z,100617.53
2022-07-29T18:23:37.850Z,100626.38
2022-07-29T18:26:04.395Z,100619.69
2022-07-29T18:28:32.667Z,100626.16
2022-07-29T18:31:00.190Z,100629.56
2022-07-29T18:33:27.062Z,100636.09
2022-07-29T18:36:11.080Z,100651.34
2022-07-29T18:38:39.252Z,100646.59
2022-07-29T18:41:05.805Z,100649.75
2022-07-29T18:43:32.370Z,100645.69
2022-07-29T18:45:58.845Z,100639.28
2022-07-29T18:48:25.386Z,100654.34
2022-07-29T18:50:51.905Z,100661.03
2022-07-29T18:53:18.421Z,100657.28
2022-07-29T18:55:45.243Z,100661.44
2022-07-29T18:58:11.736Z,100667.66
2022-07-29T19:00:38.607Z,100666.28
2022-07-29T19:03:05.148Z,100659.22
2022-07-29T19:05:31.808Z,100669.84
2022-07-29T19:07:59.002Z,100674.34
2022-07-29T19:10:25.602Z,100678.97
2022-07-29T19:12:52.184Z,100671.19
2022-07-29T19:15:20.343Z,100673.41
2022-07-29T19:17:47.912Z,100673.16
2022-07-29T19:20:15.149Z,100671.44
2022-07-29T19:22:41.762Z,100671.78
2022-07-29T19:25:09.225Z,100670.03
2022-07-29T19:27:35.706Z,100674.94
2022-07-29T19:30:03.413Z,100680.50
2022-07-29T19:32:29.936Z,100679.50
2022-07-29T19:35:15.052Z,100686.31
2022-07-29T19:37:41.501Z,100682.19
2022-07-29T19:40:09.725Z,100686.06
2022-07-29T19:42:36.165Z,100679.06
2022-07-29T19:45:02.705Z,100695.84
2022-07-29T19:47:29.175Z,100699.22
2022-07-29T19:49:55.616Z,100700.00
2022-07-29T19:52:22.064Z,100702.66
2022-07-29T19:54:48.501Z,100709.31
2022-07-29T19:57:14.975Z,100711.47
2022-07-29T19:59:41.417Z,100714.25
2022-07-29T20:02:10.785Z,100714.28
2022-07-29T20:04:37.818Z,100709.97
2022-07-29T20:07:05.486Z,100702.91
2022-07-29T20:09:32.071Z,100713.28
2022-07-29T20:11:58.919Z,100720.31
2022-07-29T20:14:25.398Z,100714.84
2022-07-29T20:16:53.980Z,100718.47
2022-07-29T20:19:20.453Z,100715.06
2022-07-29T20:21:46.980Z,100719.75
2022-07-29T20:24:13.524Z,100730.09
2022-07-29T20:26:40.040Z,100724.03
2022-07-29T20:29:06.568Z,100726.44
2022-07-29T20:31:33.177Z,100730.03
2022-07-29T20:34:01.458Z,100739.25
2022-07-29T20:36:28.299Z,100740.00
2022-07-29T20:38:55.424Z,100734.38
2022-07-29T20:41:22.557Z,100736.50
2022-07-29T20:43:49.845Z,100735.66
2022-07-29T20:46:16.530Z,100737.09
2022-07-29T20:48:43.220Z,100733.50
2022-07-29T20:51:09.845Z,100730.28
2022-07-29T20:53:38.424Z,100735.66
2022-07-29T20:56:05.521Z,100738.16
2022-07-29T20:58:33.974Z,100738.03
2022-07-29T21:01:01.145Z,100736.91
2022-07-29T21:03:27.670Z,100732.31
2022-07-29T21:05:54.223Z,100727.97
2022-07-29T21:08:20.824Z,100730.72
2022-07-29T21:10:47.283Z,100727.28
2022-07-29T21:13:14.342Z,100734.19
2022-07-29T21:15:46.146Z,100739.03
2022-07-29T21:18:26.989Z,100742.78
2022-07-29T21:20:58.139Z,100748.34
2022-07-29T21:23:25.277Z,100745.81
2022-07-29T21:25:52.816Z,100744.88
2022-07-29T21:28:36.784Z,100752.22
2022-07-29T21:31:16.089Z,100751.56
2022-07-29T21:33:45.886Z,100732.38
2022-07-29T21:36:47.892Z,100727.47
2022-07-29T21:38:59.780Z,100737.94
2022-07-29T21:41:26.624Z,100741.78
2022-07-29T21:43:54.578Z,100740.59
2022-07-29T21:46:24.829Z,100736.22
2022-07-29T21:48:51.452Z,100732.59
2022-07-29T21:51:17.942Z,100736.25
2022-07-29T21:53:44.385Z,100737.34
2022-07-29T21:56:14.620Z,100720.31
2022-07-29T21:58:41.726Z,100724.53
2022-07-29T22:01:08.259Z,100718.63
2022-07-29T22:03:34.752Z,100724.34
2022-07-29T22:06:01.218Z,100729.25
2022-07-29T22:08:27.648Z,100720.38
2022-07-29T22:10:54.449Z,100719.63
2022-07-29T22:13:21.014Z,100717.28
2022-07-29T22:15:47.495Z,100716.31
2022-07-29T22:18:20.767Z,100721.53
2022-07-29T22:20:48.339Z,100719.31
2022-07-29T22:23:14.841Z,100726.34
2022-07-29T22:25:41.318Z,100719.91
2022-07-29T22:28:07.788Z,100734.91
2022-07-29T22:30:34.280Z,100728.53
2022-07-29T22:33:00.787Z,100727.44
2022-07-29T22:35:27.277Z,100728.81
2022-07-29T22:37:54.178Z,100726.88
2022-07-29T22:40:20.708Z,100724.47
2022-07-29T22:42:47.221Z,100730.59
2022-07-29T22:45:13.721Z,100729.22
2022-07-29T22:47:48.040Z,100725.78
2022-07-29T22:50:15.785Z,100730.47
2022-07-29T22:52:42.348Z,100728.81
2022-07-29T22:55:09.377Z,100724.94
2022-07-29T22:57:35.875Z,100729.22
2022-07-29T23:00:02.448Z,100738.03
2022-07-29T23:02:29.178Z,100730.59
2022-07-29T23:04:56.080Z,100732.19
2022-07-29T23:07:23.399Z,100735.72
2022-07-29T23:09:50.161Z,100736.53
2022-07-29T23:12:16.589Z,100735.09
2022-07-29T23:14:43.798Z,100730.81
2022-07-29T23:17:10.330Z,100725.72
2022-07-29T23:19:36.857Z,100721.53
2022-07-29T23:22:03.624Z,100720.00
2022-07-29T23:24:30.318Z,100722.75
2022-07-29T23:26:56.810Z,100721.16
2022-07-29T23:29:23.312Z,100717.53
2022-07-29T23:31:49.827Z,100716.00
2022-07-29T23:34:16.380Z,100712.72
2022-07-29T23:36:42.933Z,100714.34
2022-07-29T23:39:13.367Z,100716.97
2022-07-29T23:41:40.286Z,100715.72
2022-07-29T23:44:06.970Z,100710.69
2022-07-29T23:46:33.567Z,100706.41
2022-07-29T23:49:00.190Z,100702.16
2022-07-29T23:51:28.929Z,100699.28
2022-07-29T23:53:55.759Z,100699.59
2022-07-29T23:56:22.256Z,100697.81
2022-07-29T23:58:48.727Z,100688.22
